createdAt,value
2022-10-30T00:02:27.966Z,28.42
2022-10-30T00:05:01.870Z,32.83
2022-10-30T00:07:35.563Z,28.67
2022-10-30T00:10:10.393Z,27.20
2022-10-30T00:12:44.218Z,39.25
2022-10-30T00:15:18.140Z,32.25
2022-10-30T00:17:53.011Z,29.63
2022-10-30T00:20:26.749Z,30.15
2022-10-30T00:23:00.746Z,30.95
2022-10-30T00:25:35.937Z,31.58
2022-10-30T00:28:09.674Z,31.23
2022-10-30T00:30:43.479Z,29.38
2022-10-30T00:33:18.292Z,41.88
2022-10-30T00:35:52.003Z,26.70
2022-10-30T00:38:25.568Z,30.33
2022-10-30T00:40:59.264Z,25.88
2022-10-30T00:43:36.480Z,31.60
2022-10-30T00:46:19.429Z,29.25
2022-10-30T00:48:59.163Z,30.77
2022-10-30T00:51:34.654Z,31.63
2022-10-30T00:54:10.356Z,37.45
2022-10-30T00:56:44.578Z,28.85
2022-10-30T00:59:24.064Z,33.83
2022-10-30T01:01:58.777Z,27.52
2022-10-30T01:04:37.458Z,34.22
2022-10-30T01:07:13.960Z,30.90
2022-10-30T01:09:48.486Z,26.90
2022-10-30T01:12:22.182Z,29.38
2022-10-30T01:14:59.533Z,29.00
2022-10-30T01:18:16.196Z,30.58
2022-10-30T01:21:10.648Z,29.92
2022-10-30T01:23:55.535Z,30.52
2022-10-30T01:26:39.889Z,33.70
2022-10-30T01:29:32.430Z,27.42
2022-10-30T01:32:20.357Z,25.13
2022-10-30T01:35:00.584Z,26.42
2022-10-30T01:37:41.621Z,27.00
2022-10-30T01:40:18.181Z,33.35
2022-10-30T01:42:54.184Z,28.02
2022-10-30T01:45:42.183Z,28.48
2022-10-30T01:48:34.270Z,29.48
2022-10-30T01:51:19.168Z,41.65
2022-10-30T01:54:01.433Z,27.75
2022-10-30T01:56:41.111Z,33.40
2022-10-30T01:59:18.826Z,26.45
2022-10-30T02:01:53.371Z,28.25
2022-10-30T02:04:28.054Z,24.88
2022-10-30T02:07:02.010Z,25.85
2022-10-30T02:09:36.982Z,26.15
2022-10-30T02:12:11.579Z,31.48
2022-10-30T02:14:48.938Z,29.42
2022-10-30T02:17:23.138Z,26.73
2022-10-30T02:19:56.636Z,23.63
2022-10-30T02:22:32.338Z,26.63
2022-10-30T02:25:06.599Z,25.00
2022-10-30T02:27:40.616Z,25.90
2022-10-30T02:30:14.790Z,25.02
2022-10-30T02:32:48.645Z,29.02
2022-10-30T02:35:22.151Z,32.45
2022-10-30T02:37:57.404Z,25.05
2022-10-30T02:40:31.362Z,23.92
2022-10-30T02:43:05.341Z,32.47
2022-10-30T02:45:39.001Z,19.50
2022-10-30T02:48:12.706Z,40.33
2022-10-30T02:50:46.209Z,22.75
2022-10-30T02:53:21.266Z,27.60
2022-10-30T02:55:54.786Z,23.00
2022-10-30T02:58:28.446Z,27.30
2022-10-30T03:01:06.944Z,25.77
2022-10-30T03:03:41.046Z,29.40
2022-10-30T03:06:16.623Z,24.65
2022-10-30T03:08:52.186Z,26.88
2022-10-30T03:11:25.616Z,21.02
2022-10-30T03:13:59.317Z,28.63
2022-10-30T03:16:33.662Z,30.83
2022-10-30T03:19:07.836Z,24.85
2022-10-30T03:21:41.458Z,27.88
2022-10-30T03:24:16.826Z,26.48
2022-10-30T03:26:50.268Z,29.50
2022-10-30T03:29:24.103Z,24.65
2022-10-30T03:31:57.624Z,27.25
2022-10-30T03:34:31.355Z,26.42
2022-10-30T03:37:04.902Z,24.08
2022-10-30T03:39:40.101Z,28.63
2022-10-30T03:42:13.557Z,29.40
2022-10-30T03:44:47.335Z,27.70
2022-10-30T03:47:20.788Z,23.15
2022-10-30T03:49:54.420Z,23.73
2022-10-30T03:52:28.460Z,24.63
2022-10-30T03:55:03.491Z,26.95
2022-10-30T03:57:37.810Z,24.90
2022-10-30T04:00:13.167Z,23.83
2022-10-30T04:02:47.678Z,23.40
2022-10-30T04:05:23.191Z,26.75
2022-10-30T04:07:58.029Z,20.95
2022-10-30T04:10:33.047Z,28.02
2022-10-30T04:13:08.353Z,27.20
2022-10-30T04:15:42.879Z,25.55
2022-10-30T04:18:17.266Z,19.90
2022-10-30T04:20:50.960Z,25.63
2022-10-30T04:23:24.376Z,26.75
2022-10-30T04:26:01.279Z,31.95
2022-10-30T04:28:34.757Z,25.90
2022-10-30T04:31:08.417Z,26.10
2022-10-30T04:33:41.943Z,28.60
2022-10-30T04:36:17.882Z,21.30
2022-10-30T04:38:51.301Z,28.65
2022-10-30T04:41:26.580Z,27.55
2022-10-30T04:44:00.075Z,25.15
2022-10-30T04:46:34.158Z,20.30
2022-10-30T04:49:07.939Z,20.50
2022-10-30T04:51:41.712Z,22.38
2022-10-30T04:54:15.276Z,23.35
2022-10-30T04:56:50.381Z,32.75
2022-10-30T04:59:23.891Z,21.52
2022-10-30T05:01:57.582Z,25.40
2022-10-30T05:04:31.145Z,25.50
2022-10-30T05:07:04.854Z,23.65
2022-10-30T05:09:38.462Z,19.58
2022-10-30T05:12:13.614Z,27.13
2022-10-30T05:14:47.143Z,23.23
2022-10-30T05:17:21.478Z,25.77
2022-10-30T05:19:56.628Z,25.95
2022-10-30T05:22:30.349Z,26.73
2022-10-30T05:25:04.103Z,18.85
2022-10-30T05:27:39.449Z,23.63
2022-10-30T05:30:13.637Z,19.42
2022-10-30T05:32:47.334Z,26.27
2022-10-30T05:35:20.845Z,19.33
2022-10-30T05:37:54.666Z,21.95
2022-10-30T05:40:28.783Z,21.55
2022-10-30T05:43:04.235Z,25.90
2022-10-30T05:45:37.793Z,27.00
2022-10-30T05:48:11.563Z,28.75
2022-10-30T05:50:45.195Z,29.60
2022-10-30T05:53:18.926Z,20.52
2022-10-30T05:55:52.497Z,24.33
2022-10-30T05:58:27.668Z,28.30
2022-10-30T06:01:01.538Z,21.20
2022-10-30T06:03:35.176Z,18.25
2022-10-30T06:06:08.786Z,25.38
2022-10-30T06:08:42.660Z,18.55
2022-10-30T06:11:16.217Z,25.02
2022-10-30T06:13:51.265Z,18.65
2022-10-30T06:16:24.840Z,24.00
2022-10-30T06:18:58.847Z,20.13
2022-10-30T06:21:32.436Z,27.45
2022-10-30T06:24:06.997Z,26.05
2022-10-30T06:26:40.670Z,20.42
2022-10-30T06:29:15.806Z,23.63
2022-10-30T06:31:49.320Z,27.92
2022-10-30T06:34:23.114Z,20.00
2022-10-30T06:36:56.620Z,23.48
2022-10-30T06:39:30.894Z,25.02
2022-10-30T06:42:04.604Z,26.25
2022-10-30T06:44:39.642Z,21.58
2022-10-30T06:47:13.213Z,28.10
2022-10-30T06:49:46.912Z,24.05
2022-10-30T06:52:22.996Z,22.40
2022-10-30T06:54:56.771Z,21.38
2022-10-30T06:57:30.365Z,20.83
2022-10-30T07:00:07.447Z,22.42
2022-10-30T07:02:41.188Z,20.77
2022-10-30T07:05:15.137Z,20.73
2022-10-30T07:07:48.588Z,20.10
2022-10-30T07:10:22.247Z,21.90
2022-10-30T07:12:57.421Z,18.65
2022-10-30T07:15:33.063Z,19.27
2022-10-30T07:18:07.068Z,26.17
2022-10-30T07:20:40.723Z,23.73
2022-10-30T07:23:14.215Z,19.17
2022-10-30T07:25:47.869Z,25.05
2022-10-30T07:28:21.407Z,22.75
2022-10-30T07:30:56.434Z,25.48
2022-10-30T07:33:29.940Z,20.05
2022-10-30T07:36:03.902Z,23.15
2022-10-30T07:38:37.401Z,23.85
2022-10-30T07:41:11.069Z,21.65
2022-10-30T07:43:44.569Z,24.60
2022-10-30T07:46:19.597Z,23.58
2022-10-30T07:48:53.136Z,19.83
2022-10-30T07:51:26.975Z,23.45
2022-10-30T07:54:00.522Z,27.52
2022-10-30T07:56:34.290Z,23.88
2022-10-30T07:59:07.715Z,24.00
2022-10-30T08:01:42.828Z,19.55
2022-10-30T08:04:16.511Z,21.90
2022-10-30T08:06:50.248Z,23.80
2022-10-30T08:09:23.817Z,19.50
2022-10-30T08:11:57.614Z,18.85
2022-10-30T08:14:31.101Z,21.88
2022-10-30T08:17:07.614Z,23.52
2022-10-30T08:19:41.246Z,27.85
2022-10-30T08:22:15.543Z,18.38
2022-10-30T08:24:49.030Z,32.08
2022-10-30T08:27:22.664Z,18.75
2022-10-30T08:29:56.153Z,29.75
2022-10-30T08:32:31.199Z,24.73
2022-10-30T08:35:04.999Z,17.65
2022-10-30T08:37:38.789Z,28.80
2022-10-30T08:40:12.714Z,17.83
2022-10-30T08:42:51.540Z,19.15
2022-10-30T08:48:07.573Z,25.75
2022-10-30T08:50:41.263Z,24.15
2022-10-30T08:53:16.289Z,26.08
2022-10-30T08:55:49.846Z,22.60
2022-10-30T08:58:23.478Z,22.02
2022-10-30T09:01:01.234Z,23.75
2022-10-30T09:03:38.889Z,28.42
2022-10-30T09:06:12.675Z,20.65
2022-10-30T09:08:47.391Z,26.60
2022-10-30T09:11:21.005Z,22.73
2022-10-30T09:13:54.726Z,29.35
2022-10-30T09:16:28.151Z,33.15
2022-10-30T09:19:03.233Z,26.02
2022-10-30T09:21:36.755Z,26.70
2022-10-30T09:24:10.472Z,22.58
2022-10-30T09:26:44.057Z,32.33
2022-10-30T09:29:18.028Z,20.30
2022-10-30T09:31:51.555Z,29.80
2022-10-30T09:37:01.516Z,22.52
2022-10-30T09:39:35.220Z,28.33
2022-10-30T09:42:23.092Z,32.78
2022-10-30T09:45:27.912Z,25.10
2022-10-30T09:48:43.624Z,26.27
2022-10-30T09:51:36.323Z,25.88
2022-10-30T09:54:20.453Z,26.58
2022-10-30T09:57:09.580Z,26.27
2022-10-30T10:02:35.316Z,30.15
2022-10-30T10:05:18.090Z,23.95
2022-10-30T10:07:59.427Z,25.27
2022-10-30T10:10:40.170Z,22.58
2022-10-30T10:13:27.929Z,26.52
2022-10-30T10:16:14.360Z,29.05
2022-10-30T10:18:52.674Z,29.83
2022-10-30T10:21:28.082Z,28.45
2022-10-30T10:24:05.163Z,22.67
2022-10-30T10:26:51.017Z,25.85
2022-10-30T10:29:37.183Z,26.85
2022-10-30T10:32:28.520Z,21.75
2022-10-30T10:35:43.455Z,31.65
2022-10-30T10:38:33.345Z,27.83
2022-10-30T10:41:19.755Z,30.65
2022-10-30T10:44:05.544Z,25.65
2022-10-30T10:46:52.788Z,21.38
2022-10-30T10:49:56.419Z,24.77
2022-10-30T10:52:38.923Z,20.88
2022-10-30T10:55:17.483Z,19.40
2022-10-30T10:57:54.502Z,26.98
2022-10-30T11:00:30.498Z,22.60
2022-10-30T11:03:10.586Z,24.85
2022-10-30T11:05:50.924Z,23.42
2022-10-30T11:08:27.883Z,24.88
2022-10-30T11:11:03.152Z,28.05
2022-10-30T11:13:42.656Z,24.30
2022-10-30T11:16:26.768Z,28.25
2022-10-30T11:19:03.588Z,30.30
2022-10-30T11:21:43.451Z,27.38
2022-10-30T11:24:28.614Z,35.65
2022-10-30T11:27:18.523Z,29.77
2022-10-30T11:29:55.732Z,24.42
2022-10-30T11:32:31.387Z,28.10
2022-10-30T11:35:13.950Z,21.48
2022-10-30T11:37:49.146Z,26.23
2022-10-30T11:40:24.879Z,26.75
2022-10-30T11:43:02.379Z,27.75
2022-10-30T11:45:41.204Z,24.30
2022-10-30T11:48:23.554Z,34.67
2022-10-30T11:51:00.279Z,27.20
2022-10-30T11:53:38.567Z,28.15
2022-10-30T11:56:17.091Z,38.08
2022-10-30T11:58:54.315Z,35.03
2022-10-30T12:01:31.305Z,20.42
2022-10-30T12:04:17.568Z,31.73
2022-10-30T12:06:56.303Z,16.85
2022-10-30T12:09:30.495Z,21.63
2022-10-30T12:12:12.323Z,26.98
2022-10-30T12:14:45.816Z,22.05
2022-10-30T12:17:22.775Z,24.77
2022-10-30T12:19:57.408Z,29.08
2022-10-30T12:22:32.694Z,18.85
2022-10-30T12:25:16.342Z,31.38
2022-10-30T12:27:51.230Z,26.50
2022-10-30T12:30:25.301Z,23.25
2022-10-30T12:33:09.620Z,20.80
2022-10-30T12:35:47.648Z,24.23
2022-10-30T12:38:27.815Z,29.13
2022-10-30T12:41:08.207Z,23.30
2022-10-30T12:43:45.126Z,24.90
2022-10-30T12:46:33.137Z,20.65
2022-10-30T12:49:15.722Z,23.17
2022-10-30T12:51:54.859Z,22.17
2022-10-30T12:54:36.510Z,22.98
2022-10-30T12:57:14.092Z,21.63
2022-10-30T12:59:57.939Z,20.20
2022-10-30T13:02:45.811Z,28.17
2022-10-30T13:05:31.250Z,23.27
2022-10-30T13:08:23.423Z,22.85
2022-10-30T13:11:04.218Z,21.00
2022-10-30T13:13:41.716Z,21.10
2022-10-30T13:16:19.251Z,25.52
2022-10-30T13:18:56.075Z,21.48
2022-10-30T13:21:38.717Z,22.40
2022-10-30T13:24:15.353Z,19.23
2022-10-30T13:26:53.937Z,23.67
2022-10-30T13:29:32.813Z,22.77
2022-10-30T13:32:26.486Z,21.15
2022-10-30T13:35:10.429Z,20.73
2022-10-30T13:37:56.689Z,25.90
2022-10-30T13:40:36.312Z,19.27
2022-10-30T13:43:22.928Z,26.48
2022-10-30T13:46:19.114Z,21.10
2022-10-30T13:49:27.840Z,21.10
2022-10-30T13:52:08.046Z,26.33
2022-10-30T13:54:47.883Z,24.98
2022-10-30T13:57:27.554Z,21.75
2022-10-30T14:00:07.498Z,17.88
2022-10-30T14:02:54.381Z,28.10
2022-10-30T14:05:36.098Z,27.67
2022-10-30T14:08:21.769Z,23.80
2022-10-30T14:11:00.669Z,29.00
2022-10-30T14:13:47.014Z,30.58
2022-10-30T14:16:35.183Z,23.90
2022-10-30T14:19:09.867Z,17.47
2022-10-30T14:21:45.667Z,27.83
2022-10-30T14:24:22.648Z,22.88
2022-10-30T14:27:10.981Z,23.88
2022-10-30T14:29:49.542Z,42.65
2022-10-30T14:32:50.991Z,19.83
2022-10-30T14:35:36.779Z,44.33
2022-10-30T14:38:23.820Z,33.58
2022-10-30T14:41:27.984Z,31.13
2022-10-30T14:44:26.461Z,21.08
2022-10-30T14:47:15.168Z,24.40
2022-10-30T14:49:55.106Z,18.98
2022-10-30T14:52:41.608Z,20.33
2022-10-30T14:55:31.954Z,23.83
2022-10-30T14:58:25.390Z,18.25
2022-10-30T15:01:27.076Z,26.85
2022-10-30T15:04:12.752Z,28.85
2022-10-30T15:06:58.505Z,21.35
2022-10-30T15:09:54.904Z,27.77
2022-10-30T15:12:44.044Z,27.65
2022-10-30T15:15:19.624Z,22.10
2022-10-30T15:17:57.588Z,30.23
2022-10-30T15:20:34.667Z,30.85
2022-10-30T15:23:13.245Z,32.03
2022-10-30T15:25:49.979Z,26.40
2022-10-30T15:28:27.257Z,21.92
2022-10-30T15:31:02.139Z,24.33
2022-10-30T15:33:38.413Z,32.90
2022-10-30T15:36:18.762Z,30.35
2022-10-30T15:39:07.413Z,27.52
2022-10-30T15:41:44.955Z,28.58
2022-10-30T15:44:22.381Z,26.95
2022-10-30T15:46:57.830Z,25.33
2022-10-30T15:49:35.314Z,34.50
2022-10-30T15:52:16.831Z,22.73
2022-10-30T15:54:56.874Z,30.38
2022-10-30T16:00:30.187Z,33.00
2022-10-30T16:03:06.310Z,30.95
2022-10-30T16:05:41.511Z,30.75
2022-10-30T16:08:21.057Z,25.83
2022-10-30T16:10:56.061Z,26.20
2022-10-30T16:13:31.983Z,32.25
2022-10-30T16:16:06.867Z,28.25
2022-10-30T16:18:41.062Z,24.88
2022-10-30T16:21:19.501Z,31.05
2022-10-30T16:23:55.179Z,31.25
2022-10-30T16:26:33.733Z,28.80
2022-10-30T16:29:22.303Z,33.15
2022-10-30T16:31:56.408Z,30.92
2022-10-30T16:34:34.693Z,24.55
2022-10-30T16:37:23.613Z,27.55
2022-10-30T16:39:57.429Z,31.48
2022-10-30T16:42:31.148Z,31.73
2022-10-30T16:45:50.482Z,35.33
2022-10-30T16:48:28.606Z,29.35
2022-10-30T16:51:04.232Z,36.13
2022-10-30T16:53:39.371Z,42.97
2022-10-30T16:56:21.393Z,58.47
2022-10-30T16:58:58.820Z,45.92
2022-10-30T17:01:32.743Z,35.58
2022-10-30T17:04:06.957Z,41.67
2022-10-30T17:06:43.153Z,39.72
2022-10-30T17:09:25.182Z,35.63
2022-10-30T17:12:07.925Z,37.00
2022-10-30T17:14:48.542Z,35.63
2022-10-30T17:17:29.261Z,40.58
2022-10-30T17:20:07.753Z,33.58
2022-10-30T17:22:41.456Z,35.20
2022-10-30T17:25:19.368Z,35.08
2022-10-30T17:27:52.967Z,38.10
2022-10-30T17:30:35.885Z,42.20
2022-10-30T17:33:36.098Z,43.88
2022-10-30T17:36:10.205Z,38.92
2022-10-30T17:38:43.633Z,40.28
2022-10-30T17:41:18.780Z,42.00
2022-10-30T17:43:53.734Z,40.80
2022-10-30T17:46:27.390Z,36.45
2022-10-30T17:49:01.567Z,47.92
2022-10-30T17:51:35.542Z,42.80
2022-10-30T17:54:13.902Z,41.65
2022-10-30T17:56:49.026Z,38.35
2022-10-30T17:59:22.486Z,46.58
2022-10-30T18:01:57.320Z,45.00
2022-10-30T18:04:30.836Z,43.30
2022-10-30T18:07:04.493Z,41.22
2022-10-30T18:09:38.142Z,42.10
2022-10-30T18:12:15.259Z,42.88
2022-10-30T18:14:48.764Z,40.67
2022-10-30T18:17:22.418Z,44.88
2022-10-30T18:19:55.844Z,42.08
2022-10-30T18:22:29.582Z,45.50
2022-10-30T18:25:06.922Z,45.95
2022-10-30T18:27:42.002Z,44.72
2022-10-30T18:30:16.609Z,44.75
2022-10-30T18:32:50.782Z,44.97
2022-10-30T18:35:28.344Z,49.85
2022-10-30T18:38:02.144Z,46.55
2022-10-30T18:40:36.042Z,49.22
2022-10-30T18:43:13.059Z,48.53
2022-10-30T18:45:46.554Z,47.83
2022-10-30T18:48:20.349Z,51.13
2022-10-30T18:50:53.949Z,45.65
2022-10-30T18:53:32.698Z,48.03
2022-10-30T18:56:10.796Z,48.40
2022-10-30T18:58:46.054Z,52.50
2022-10-30T19:01:20.251Z,52.03
2022-10-30T19:03:54.112Z,50.45
2022-10-30T19:06:27.925Z,56.55
2022-10-30T19:09:01.882Z,53.95
2022-10-30T19:11:38.275Z,53.42
2022-10-30T19:14:15.906Z,51.92
2022-10-30T19:16:49.524Z,56.25
2022-10-30T19:19:23.175Z,49.78
2022-10-30T19:21:56.604Z,53.15
2022-10-30T19:24:30.317Z,56.00
2022-10-30T19:27:03.791Z,54.13
2022-10-30T19:29:38.756Z,54.58
2022-10-30T19:32:12.205Z,52.95
2022-10-30T19:34:46.598Z,54.30
2022-10-30T19:37:20.169Z,56.13
2022-10-30T19:39:53.832Z,49.33
2022-10-30T19:42:27.279Z,55.53
2022-10-30T19:45:02.322Z,56.85
2022-10-30T19:47:36.559Z,50.70
2022-10-30T19:50:35.202Z,56.85
2022-10-30T19:53:09.251Z,54.17
2022-10-30T19:55:44.525Z,63.22
2022-10-30T19:58:20.896Z,57.78
2022-10-30T20:01:00.187Z,54.47
2022-10-30T20:03:33.802Z,54.78
2022-10-30T20:06:08.032Z,53.08
2022-10-30T20:08:41.560Z,56.92
2022-10-30T20:11:15.292Z,59.05
2022-10-30T20:13:50.735Z,54.95
2022-10-30T20:16:29.758Z,59.38
2022-10-30T20:19:05.453Z,58.45
2022-10-30T20:21:39.121Z,55.50
2022-10-30T20:24:12.591Z,61.38
2022-10-30T20:26:46.318Z,60.95
2022-10-30T20:29:19.983Z,58.03
2022-10-30T20:31:54.969Z,61.25
2022-10-30T20:34:28.424Z,54.40
2022-10-30T20:37:02.095Z,59.60
2022-10-30T20:39:35.592Z,52.83
2022-10-30T20:42:10.154Z,54.72
2022-10-30T20:44:43.605Z,60.22
2022-10-30T20:47:18.700Z,54.72
2022-10-30T20:49:52.379Z,51.42
2022-10-30T20:52:27.224Z,56.25
2022-10-30T20:55:00.882Z,51.13
2022-10-30T20:57:34.811Z,52.53
2022-10-30T21:00:10.468Z,55.00
2022-10-30T21:02:45.877Z,56.67
2022-10-30T21:05:42.255Z,56.38
2022-10-30T21:08:13.385Z,55.35
2022-10-30T21:10:46.895Z,53.83
2022-10-30T21:13:20.623Z,58.63
2022-10-30T21:15:54.084Z,57.05
2022-10-30T21:18:29.333Z,57.47
2022-10-30T21:21:03.905Z,56.63
2022-10-30T21:23:37.594Z,56.78
2022-10-30T21:26:12.054Z,51.08
2022-10-30T21:28:45.757Z,56.78
2022-10-30T21:31:19.262Z,63.47
2022-10-30T21:33:54.341Z,51.63
2022-10-30T21:36:28.091Z,59.83
2022-10-30T21:39:01.823Z,57.95
2022-10-30T21:41:35.514Z,56.30
2022-10-30T21:44:10.590Z,65.60
2022-10-30T21:46:44.141Z,57.55
2022-10-30T21:49:19.452Z,55.88
2022-10-30T21:51:53.004Z,59.30
2022-10-30T21:54:26.736Z,61.67
2022-10-30T21:57:00.306Z,60.85
2022-10-30T21:59:34.115Z,61.13
2022-10-30T22:02:07.952Z,66.00
2022-10-30T22:04:43.110Z,58.42
2022-10-30T22:07:18.680Z,57.28
2022-10-30T22:09:53.504Z,56.90
2022-10-30T22:12:27.073Z,56.63
2022-10-30T22:15:00.780Z,56.70
2022-10-30T22:17:35.137Z,51.88
2022-10-30T22:20:12.225Z,57.38
2022-10-30T22:22:45.739Z,58.15
2022-10-30T22:25:19.579Z,53.28
2022-10-30T22:27:53.190Z,55.17
2022-10-30T22:30:26.944Z,59.92
2022-10-30T22:33:00.814Z,53.95
2022-10-30T22:35:38.561Z,66.47
2022-10-30T22:38:12.894Z,61.05
2022-10-30T22:40:46.616Z,57.47
2022-10-30T22:43:20.227Z,59.67
2022-10-30T22:45:54.565Z,57.65
2022-10-30T22:48:28.999Z,57.33
2022-10-30T22:51:08.485Z,58.53
2022-10-30T22:53:46.136Z,60.58
2022-10-30T22:56:23.932Z,54.38
2022-10-30T22:58:57.955Z,59.10
2022-10-30T23:01:33.840Z,63.28
2022-10-30T23:04:09.006Z,63.83
2022-10-30T23:06:44.842Z,53.78
2022-10-30T23:09:22.114Z,57.67
2022-10-30T23:11:55.788Z,66.68
2022-10-30T23:14:29.264Z,64.93
2022-10-30T23:17:03.011Z,56.40
2022-10-30T23:19:36.539Z,55.88
2022-10-30T23:22:11.605Z,60.15
2022-10-30T23:24:45.143Z,60.92
2022-10-30T23:27:18.905Z,61.10
2022-10-30T23:29:52.351Z,59.08
2022-10-30T23:32:26.099Z,57.80
2022-10-30T23:34:59.478Z,51.50
2022-10-30T23:37:34.597Z,60.00
2022-10-30T23:40:09.539Z,55.65
2022-10-30T23:42:43.245Z,51.42
2022-10-30T23:45:16.739Z,53.63
2022-10-30T23:47:50.559Z,51.10
2022-10-30T23:50:24.103Z,58.92
2022-10-30T23:52:59.258Z,57.15
2022-10-30T23:55:32.815Z,49.28
2022-10-30T23:58:06.927Z,53.03
